createdAt,value
2018-07-16T00:01:00.801Z,3.37
2018-07-16T00:03:30.841Z,3.40
2018-07-16T00:06:00.902Z,4.12
2018-07-16T00:08:30.968Z,3.95
2018-07-16T00:11:01.030Z,3.65
2018-07-16T00:13:30.672Z,4.05
2018-07-16T00:16:00.716Z,3.95
2018-07-16T00:18:30.733Z,3.50
2018-07-16T00:21:00.855Z,4.58
2018-07-16T00:23:30.861Z,4.78
2018-07-16T00:26:00.960Z,4.30
2018-07-16T00:28:30.621Z,4.15
2018-07-16T00:31:00.719Z,4.72
2018-07-16T00:33:30.752Z,5.80
2018-07-16T00:36:00.807Z,6.28
2018-07-16T00:38:30.874Z,4.35
2018-07-16T00:41:00.935Z,4.58
2018-07-16T00:43:30.990Z,3.75
2018-07-16T00:46:00.616Z,3.70
2018-07-16T00:48:30.257Z,3.75
2018-07-16T00:51:00.309Z,5.00
2018-07-16T00:53:30.403Z,4.28
2018-07-16T00:56:00.445Z,3.75
2018-07-16T00:58:30.537Z,3.75
2018-07-16T01:01:00.589Z,5.28
2018-07-16T01:03:31.337Z,3.80
2018-07-16T01:06:01.413Z,3.58
2018-07-16T01:08:31.494Z,3.12
2018-07-16T01:11:01.518Z,3.83
2018-07-16T01:13:31.661Z,3.22
2018-07-16T01:16:01.281Z,2.60
2018-07-16T01:18:31.704Z,2.80
2018-07-16T01:21:01.853Z,2.92
2018-07-16T01:23:31.939Z,3.40
2018-07-16T01:26:01.765Z,3.67
2018-07-16T01:28:32.121Z,4.67
2018-07-16T01:31:02.196Z,3.52
2018-07-16T01:33:32.347Z,3.50
2018-07-16T01:36:02.449Z,3.27
2018-07-16T01:38:32.639Z,3.35
2018-07-16T01:41:02.744Z,3.12
2018-07-16T01:43:32.815Z,3.85
2018-07-16T01:46:02.941Z,3.65
2018-07-16T01:48:33.050Z,3.58
2018-07-16T01:51:03.124Z,2.98
2018-07-16T01:53:33.212Z,3.35
2018-07-16T01:56:03.260Z,2.98
2018-07-16T01:58:33.335Z,3.00
2018-07-16T02:01:04.219Z,3.30
2018-07-16T02:03:34.971Z,4.17
2018-07-16T02:06:05.018Z,3.42
2018-07-16T02:08:35.152Z,3.60
2018-07-16T02:11:05.410Z,3.45
2018-07-16T02:13:35.078Z,3.72
2018-07-16T02:16:05.164Z,3.72
2018-07-16T02:18:35.263Z,3.70
2018-07-16T02:21:05.368Z,3.55
2018-07-16T02:23:35.545Z,3.40
2018-07-16T02:26:05.646Z,4.00
2018-07-16T02:28:35.299Z,4.05
2018-07-16T02:31:05.339Z,4.17
2018-07-16T02:33:35.408Z,4.60
2018-07-16T02:36:05.500Z,4.83
2018-07-16T02:38:35.629Z,5.45
2018-07-16T02:41:05.763Z,6.85
2018-07-16T02:43:35.448Z,7.03
2018-07-16T02:46:05.732Z,6.05
2018-07-16T02:48:35.818Z,5.70
2018-07-16T02:51:05.867Z,5.60
2018-07-16T02:53:35.919Z,6.00
2018-07-16T02:56:06.017Z,6.05
2018-07-16T02:58:36.093Z,6.42
2018-07-16T03:01:06.209Z,7.17
2018-07-16T03:03:36.352Z,6.33
2018-07-16T03:06:06.431Z,7.12
2018-07-16T03:08:36.486Z,7.08
2018-07-16T03:11:06.543Z,6.60
2018-07-16T03:13:36.643Z,6.10
2018-07-16T03:16:06.316Z,6.75
2018-07-16T03:18:36.442Z,6.40
2018-07-16T03:21:06.521Z,6.80
2018-07-16T03:23:36.592Z,6.70
2018-07-16T03:26:06.606Z,6.47
2018-07-16T03:28:36.696Z,7.00
2018-07-16T03:31:06.872Z,7.30
2018-07-16T03:33:36.935Z,7.20
2018-07-16T03:36:06.677Z,7.30
2018-07-16T03:38:36.823Z,7.60
2018-07-16T03:41:07.175Z,7.70
2018-07-16T03:43:37.601Z,7.60
2018-07-16T03:46:07.642Z,8.10
2018-07-16T03:48:38.363Z,7.70
2018-07-16T03:51:08.691Z,7.75
2018-07-16T03:53:38.803Z,6.78
2018-07-16T03:56:08.841Z,6.47
2018-07-16T03:58:38.684Z,5.50
2018-07-16T04:01:09.021Z,4.80
2018-07-16T04:03:39.058Z,4.70
2018-07-16T04:06:09.100Z,4.70
2018-07-16T04:08:39.123Z,4.55
2018-07-16T04:11:09.197Z,4.33
2018-07-16T04:13:39.252Z,4.70
2018-07-16T04:16:09.744Z,5.47
2018-07-16T04:18:39.839Z,5.17
2018-07-16T04:21:09.968Z,5.47
2018-07-16T04:23:40.085Z,5.87
2018-07-16T04:26:10.161Z,6.20
2018-07-16T04:28:40.185Z,5.75
2018-07-16T04:31:10.335Z,5.78
2018-07-16T04:33:40.521Z,5.57
2018-07-16T04:36:10.684Z,5.08
2018-07-16T04:38:40.817Z,4.97
2018-07-16T04:41:11.279Z,5.15
2018-07-16T04:43:41.060Z,4.67
2018-07-16T04:46:11.159Z,4.85
2018-07-16T04:48:41.281Z,4.87
2018-07-16T04:51:11.399Z,4.85
2018-07-16T04:53:41.562Z,5.50
2018-07-16T04:56:11.680Z,5.30
2018-07-16T04:58:41.777Z,5.12
2018-07-16T05:01:11.980Z,4.97
2018-07-16T05:03:42.095Z,4.90
2018-07-16T05:06:12.227Z,4.95
2018-07-16T05:08:42.295Z,4.50
2018-07-16T05:11:12.413Z,4.70
2018-07-16T05:13:42.543Z,4.40
2018-07-16T05:16:12.679Z,4.30
2018-07-16T05:18:42.369Z,4.33
2018-07-16T05:21:12.540Z,4.00
2018-07-16T05:23:42.616Z,4.13
2018-07-16T05:26:12.750Z,3.90
2018-07-16T05:28:42.837Z,4.55
2018-07-16T05:31:13.037Z,4.45
2018-07-16T05:33:43.174Z,4.60
2018-07-16T05:36:13.332Z,4.40
2018-07-16T05:38:43.443Z,5.10
2018-07-16T05:41:13.583Z,3.40
2018-07-16T05:43:43.670Z,3.17
2018-07-16T05:46:13.795Z,3.20
2018-07-16T05:48:43.908Z,2.87
2018-07-16T05:51:14.072Z,3.30
2018-07-16T05:53:44.172Z,3.60
2018-07-16T05:56:14.287Z,2.80
2018-07-16T05:58:44.378Z,4.10
2018-07-16T06:01:18.170Z,3.27
2018-07-16T06:03:49.465Z,3.70
2018-07-16T06:06:19.636Z,3.47
2018-07-16T06:08:49.768Z,3.20
2018-07-16T06:11:19.897Z,3.47
2018-07-16T06:13:50.032Z,3.40
2018-07-16T06:16:20.198Z,2.67
2018-07-16T06:18:50.299Z,2.73
2018-07-16T06:21:20.401Z,2.95
2018-07-16T06:23:50.101Z,2.80
2018-07-16T06:26:20.583Z,2.67
2018-07-16T06:28:50.978Z,2.47
2018-07-16T06:31:21.161Z,2.20
2018-07-16T06:33:51.283Z,2.60
2018-07-16T06:36:21.515Z,2.67
2018-07-16T06:38:51.656Z,2.30
2018-07-16T06:41:22.200Z,2.40
2018-07-16T06:43:52.240Z,2.70
2018-07-16T06:46:22.350Z,2.33
2018-07-16T06:48:52.430Z,2.95
2018-07-16T06:51:22.645Z,3.00
2018-07-16T06:53:52.728Z,3.05
2018-07-16T06:56:22.807Z,3.60
2018-07-16T06:58:53.152Z,2.70
2018-07-16T07:01:23.345Z,3.72
2018-07-16T07:03:53.519Z,2.90
2018-07-16T07:06:23.766Z,2.60
2018-07-16T07:08:53.911Z,2.90
2018-07-16T07:11:23.963Z,2.65
2018-07-16T07:13:54.112Z,2.50
2018-07-16T07:16:24.210Z,3.30
2018-07-16T07:18:54.284Z,2.70
2018-07-16T07:21:24.471Z,2.65
2018-07-16T07:23:54.546Z,3.07
2018-07-16T07:26:24.726Z,2.80
2018-07-16T07:28:54.794Z,3.00
2018-07-16T07:31:24.832Z,3.27
2018-07-16T07:33:54.924Z,2.90
2018-07-16T07:36:25.005Z,3.10
2018-07-16T07:38:55.090Z,3.00
2018-07-16T07:41:25.177Z,2.70
2018-07-16T07:43:55.316Z,2.55
2018-07-16T07:46:25.376Z,2.67
2018-07-16T07:48:55.431Z,2.58
2018-07-16T07:51:25.512Z,3.20
2018-07-16T07:53:55.570Z,2.83
2018-07-16T07:56:25.306Z,2.65
2018-07-16T07:58:55.397Z,2.70
2018-07-16T08:01:25.007Z,2.65
2018-07-16T08:03:55.117Z,2.47
2018-07-16T08:06:25.215Z,2.40
2018-07-16T08:08:55.349Z,3.05
2018-07-16T08:11:25.483Z,2.60
2018-07-16T08:13:55.687Z,2.83
2018-07-16T08:16:25.672Z,2.62
2018-07-16T08:18:55.729Z,3.08
2018-07-16T08:21:25.831Z,2.70
2018-07-16T08:23:55.975Z,2.50
2018-07-16T08:26:26.065Z,2.50
2018-07-16T08:28:56.130Z,2.50
2018-07-16T08:31:26.242Z,2.60
2018-07-16T08:33:56.340Z,6.85
2018-07-16T08:36:26.469Z,5.22
2018-07-16T08:38:56.550Z,2.42
2018-07-16T08:41:26.640Z,2.77
2018-07-16T08:43:56.799Z,2.25
2018-07-16T08:46:26.507Z,3.33
2018-07-16T08:48:56.543Z,2.60
2018-07-16T08:51:26.150Z,2.40
2018-07-16T08:53:55.870Z,2.70
2018-07-16T08:56:26.020Z,3.10
2018-07-16T08:58:56.117Z,2.77
2018-07-16T09:01:25.764Z,2.40
2018-07-16T09:03:55.860Z,2.40
2018-07-16T09:06:25.904Z,4.10
2018-07-16T09:08:55.954Z,2.22
2018-07-16T09:11:26.036Z,2.33
2018-07-16T09:13:56.103Z,2.40
2018-07-16T09:16:26.182Z,2.30
2018-07-16T09:18:56.263Z,2.45
2018-07-16T09:21:26.405Z,3.90
2018-07-16T09:23:56.564Z,3.15
2018-07-16T09:26:26.627Z,2.20
2018-07-16T09:28:56.800Z,2.67
2018-07-16T09:31:26.851Z,2.80
2018-07-16T09:33:56.927Z,2.77
2018-07-16T09:36:26.607Z,2.60
2018-07-16T09:38:56.699Z,2.83
2018-07-16T09:41:26.796Z,3.10
2018-07-16T09:43:56.866Z,2.70
2018-07-16T09:46:26.922Z,3.05
2018-07-16T09:48:57.023Z,2.62
2018-07-16T09:51:27.077Z,2.47
2018-07-16T09:53:56.747Z,2.50
2018-07-16T09:56:26.855Z,2.70
2018-07-16T09:58:56.933Z,2.20
2018-07-16T10:01:32.092Z,2.25
2018-07-16T10:04:02.165Z,2.30
2018-07-16T10:06:32.224Z,3.45
2018-07-16T10:09:02.292Z,2.00
2018-07-16T10:11:32.367Z,2.20
2018-07-16T10:14:02.532Z,2.25
2018-07-16T10:16:33.055Z,2.25
2018-07-16T10:19:03.564Z,2.10
2018-07-16T10:21:33.619Z,2.25
2018-07-16T10:24:03.710Z,2.00
2018-07-16T10:26:33.786Z,2.27
2018-07-16T10:29:03.485Z,2.10
2018-07-16T10:31:33.549Z,3.00
2018-07-16T10:34:03.656Z,2.25
2018-07-16T10:36:33.356Z,2.05
2018-07-16T10:39:03.519Z,1.80
2018-07-16T10:41:33.583Z,8.63
2018-07-16T10:44:03.672Z,1.72
2018-07-16T10:46:33.725Z,1.75
2018-07-16T10:49:03.808Z,1.95
2018-07-16T10:51:33.884Z,2.10
2018-07-16T10:54:04.016Z,3.10
2018-07-16T10:56:34.119Z,2.08
2018-07-16T10:59:04.216Z,2.20
2018-07-16T11:01:34.297Z,1.77
2018-07-16T11:04:04.457Z,1.70
2018-07-16T11:06:34.532Z,1.87
2018-07-16T11:09:05.439Z,2.12
2018-07-16T11:11:35.588Z,1.70
2018-07-16T11:14:05.625Z,2.17
2018-07-16T11:16:35.720Z,2.57
2018-07-16T11:19:05.807Z,2.57
2018-07-16T11:21:35.862Z,1.90
2018-07-16T11:24:05.964Z,3.25
2018-07-16T11:26:36.025Z,1.90
2018-07-16T11:29:06.070Z,2.05
2018-07-16T11:31:36.220Z,1.90
2018-07-16T11:34:06.265Z,2.30
2018-07-16T11:36:36.459Z,3.05
2018-07-16T11:39:08.612Z,3.60
2018-07-16T11:41:38.796Z,2.30
2018-07-16T11:44:09.487Z,2.40
2018-07-16T11:46:39.661Z,2.40
2018-07-16T11:49:10.107Z,2.62
2018-07-16T11:51:40.192Z,2.40
2018-07-16T11:54:10.338Z,3.85
2018-07-16T11:56:40.436Z,2.62
2018-07-16T11:59:10.560Z,3.22
2018-07-16T12:01:40.667Z,2.87
2018-07-16T12:04:11.053Z,3.77
2018-07-16T12:06:40.729Z,2.67
2018-07-16T12:09:10.841Z,2.40
2018-07-16T12:11:40.972Z,2.40
2018-07-16T12:14:10.987Z,2.50
2018-07-16T12:16:41.151Z,2.80
2018-07-16T12:19:11.308Z,2.30
2018-07-16T12:21:41.495Z,2.30
2018-07-16T12:24:11.584Z,2.27
2018-07-16T12:26:41.705Z,2.30
2018-07-16T12:29:11.756Z,2.47
2018-07-16T12:31:41.925Z,2.15
2018-07-16T12:34:11.996Z,2.17
2018-07-16T12:36:42.096Z,2.10
2018-07-16T12:39:12.308Z,1.90
2018-07-16T12:41:42.366Z,2.00
2018-07-16T12:44:12.471Z,3.08
2018-07-16T12:46:42.581Z,2.10
2018-07-16T12:49:12.603Z,1.80
2018-07-16T12:51:42.752Z,2.20
2018-07-16T12:54:12.788Z,1.70
2018-07-16T12:56:42.872Z,1.60
2018-07-16T12:59:13.080Z,2.55
2018-07-16T13:01:43.188Z,2.15
2018-07-16T13:04:14.296Z,1.60
2018-07-16T13:06:44.547Z,2.90
2018-07-16T13:09:14.188Z,2.30
2018-07-16T13:11:44.363Z,1.92
2018-07-16T13:14:14.432Z,1.67
2018-07-16T13:16:44.548Z,1.60
2018-07-16T13:19:14.700Z,2.70
2018-07-16T13:21:44.930Z,1.75
2018-07-16T13:24:15.021Z,1.80
2018-07-16T13:26:45.173Z,2.63
2018-07-16T13:29:15.365Z,1.80
2018-07-16T13:31:45.268Z,1.70
2018-07-16T13:34:15.384Z,1.70
2018-07-16T13:36:45.659Z,2.98
2018-07-16T13:39:15.885Z,3.17
2018-07-16T13:41:46.020Z,1.67
2018-07-16T13:44:16.156Z,2.50
2018-07-16T13:46:46.353Z,2.00
2018-07-16T13:49:16.501Z,2.12
2018-07-16T13:51:46.725Z,1.77
2018-07-16T13:54:16.772Z,1.90
2018-07-16T13:56:46.934Z,1.90
2018-07-16T13:59:16.980Z,1.70
2018-07-16T14:01:47.245Z,1.60
2018-07-16T14:04:17.327Z,1.60
2018-07-16T14:06:47.501Z,1.70
2018-07-16T14:09:17.613Z,1.80
2018-07-16T14:11:47.856Z,1.70
2018-07-16T14:14:18.004Z,1.60
2018-07-16T14:16:48.299Z,1.72
2018-07-16T14:19:18.415Z,2.00
2018-07-16T14:21:48.540Z,1.77
2018-07-16T14:24:18.796Z,1.57
2018-07-16T14:26:49.050Z,1.62
2018-07-16T14:29:19.283Z,1.90
2018-07-16T14:31:49.504Z,1.80
2018-07-16T14:34:19.735Z,1.70
2018-07-16T14:36:49.947Z,1.60
2018-07-16T14:39:21.536Z,1.60
2018-07-16T14:41:51.656Z,1.82
2018-07-16T14:44:21.899Z,1.65
2018-07-16T14:46:52.060Z,2.00
2018-07-16T14:49:22.143Z,1.50
2018-07-16T14:51:52.353Z,2.10
2018-07-16T14:54:22.605Z,1.67
2018-07-16T14:56:52.673Z,2.67
2018-07-16T14:59:22.830Z,1.63
2018-07-16T15:01:52.917Z,2.20
2018-07-16T15:04:23.147Z,2.22
2018-07-16T15:06:53.193Z,1.72
2018-07-16T15:09:23.286Z,1.60
2018-07-16T15:11:53.424Z,1.70
2018-07-16T15:14:23.523Z,1.60
2018-07-16T15:16:53.603Z,1.85
2018-07-16T15:19:23.744Z,1.82
2018-07-16T15:21:53.488Z,1.65
2018-07-16T15:24:23.667Z,1.67
2018-07-16T15:26:53.856Z,1.75
2018-07-16T15:29:24.062Z,1.85
2018-07-16T15:31:54.104Z,1.87
2018-07-16T15:34:24.285Z,1.70
2018-07-16T15:36:54.366Z,2.35
2018-07-16T15:39:24.402Z,2.40
2018-07-16T15:41:54.560Z,1.92
2018-07-16T15:44:24.667Z,1.70
2018-07-16T15:46:54.720Z,1.60
2018-07-16T15:49:26.384Z,1.70
2018-07-16T15:51:56.522Z,1.70
2018-07-16T15:54:26.649Z,1.70
2018-07-16T15:56:56.817Z,1.95
2018-07-16T15:59:27.561Z,3.58
2018-07-16T16:01:57.658Z,1.80
2018-07-16T16:04:27.839Z,1.77
2018-07-16T16:06:57.955Z,1.70
2018-07-16T16:09:28.381Z,2.50
2018-07-16T16:11:58.668Z,1.62
2018-07-16T16:14:28.398Z,2.15
2018-07-16T16:16:58.520Z,1.62
2018-07-16T16:19:28.713Z,2.47
2018-07-16T16:21:58.792Z,2.10
2018-07-16T16:24:29.404Z,1.75
2018-07-16T16:26:59.550Z,2.00
2018-07-16T16:29:29.658Z,1.80
2018-07-16T16:31:59.330Z,2.07
2018-07-16T16:34:29.436Z,1.55
2018-07-16T16:36:59.528Z,2.15
2018-07-16T16:39:29.754Z,3.00
2018-07-16T16:41:59.889Z,1.70
2018-07-16T16:44:30.014Z,3.08
2018-07-16T16:47:00.135Z,2.00
2018-07-16T16:49:30.301Z,2.00
2018-07-16T16:52:00.513Z,2.72
2018-07-16T16:54:30.577Z,2.42
2018-07-16T16:57:00.251Z,2.77
2018-07-16T16:59:30.407Z,2.77
2018-07-16T17:02:00.831Z,1.90
2018-07-16T17:04:30.599Z,1.70
2018-07-16T17:07:00.742Z,1.80
2018-07-16T17:09:30.885Z,1.75
2018-07-16T17:12:01.020Z,1.95
2018-07-16T17:14:31.119Z,3.10
2018-07-16T17:17:01.155Z,2.70
2018-07-16T17:19:31.215Z,2.47
2018-07-16T17:22:01.260Z,1.72
2018-07-16T17:24:31.366Z,2.27
2018-07-16T17:27:01.413Z,1.70
2018-07-16T17:29:31.534Z,1.95
2018-07-16T17:32:01.608Z,1.77
2018-07-16T17:34:31.276Z,2.47
2018-07-16T17:37:01.701Z,2.60
2018-07-16T17:39:31.868Z,2.00
2018-07-16T17:42:01.525Z,2.67
2018-07-16T17:44:31.733Z,5.20
2018-07-16T17:47:01.769Z,2.95
2018-07-16T17:49:31.897Z,2.08
2018-07-16T17:52:01.941Z,1.90
2018-07-16T17:54:32.013Z,2.10
2018-07-16T17:57:02.057Z,2.08
2018-07-16T17:59:32.129Z,2.40
2018-07-16T18:02:02.161Z,2.05
2018-07-16T18:04:31.918Z,2.20
2018-07-16T18:07:02.023Z,3.17
2018-07-16T18:09:32.036Z,2.10
2018-07-16T18:12:02.085Z,2.27
2018-07-16T18:14:32.141Z,2.20
2018-07-16T18:17:02.235Z,2.10
2018-07-16T18:19:32.255Z,2.12
2018-07-16T18:22:02.389Z,2.20
2018-07-16T18:24:32.474Z,2.30
2018-07-16T18:27:02.803Z,2.12
2018-07-16T18:29:33.020Z,2.80
2018-07-16T18:32:03.164Z,2.25
2018-07-16T18:34:33.223Z,2.75
2018-07-16T18:37:03.383Z,3.08
2018-07-16T18:39:33.812Z,2.70
2018-07-16T19:05:44.990Z,2.40
2018-07-16T19:08:15.466Z,3.20
2018-07-16T19:10:45.642Z,3.05
2018-07-16T19:13:15.548Z,3.33
2018-07-16T19:15:45.543Z,3.12
2018-07-16T19:18:15.495Z,2.85
2018-07-16T19:20:48.595Z,2.90
2018-07-16T19:23:18.623Z,3.10
2018-07-16T19:25:49.409Z,2.72
2018-07-16T19:28:19.350Z,2.80
2018-07-16T19:30:49.325Z,2.67
2018-07-16T19:33:19.252Z,3.00
2018-07-16T19:35:49.248Z,2.52
2018-07-16T19:38:19.249Z,3.27
2018-07-16T19:40:49.208Z,2.60
2018-07-16T19:43:19.233Z,3.02
2018-07-16T19:45:49.177Z,3.17
2018-07-16T19:48:19.185Z,2.77
2018-07-16T19:50:49.872Z,3.87
2018-07-16T19:53:19.938Z,2.85
2018-07-16T19:55:51.478Z,3.10
2018-07-16T19:58:21.487Z,3.83
2018-07-16T20:00:51.529Z,3.00
2018-07-16T20:03:21.639Z,2.62
2018-07-16T20:05:51.637Z,2.60
2018-07-16T20:08:22.621Z,2.72
2018-07-16T20:10:52.504Z,2.65
2018-07-16T20:13:22.483Z,3.08
2018-07-16T20:15:52.418Z,2.70
2018-07-16T20:18:22.396Z,2.60
2018-07-16T20:20:56.543Z,2.93
2018-07-16T20:23:26.501Z,2.90
2018-07-16T20:25:58.760Z,3.47
2018-07-16T20:28:28.722Z,2.85
2018-07-16T20:30:58.700Z,7.40
2018-07-16T20:33:28.913Z,6.00
2018-07-16T20:35:58.889Z,5.10
2018-07-16T20:38:28.864Z,4.60
2018-07-16T20:40:58.790Z,4.87
2018-07-16T20:43:29.144Z,3.25
2018-07-16T20:45:58.670Z,3.17
2018-07-16T20:48:28.645Z,3.22
2018-07-16T20:50:58.681Z,3.20
2018-07-16T20:53:28.673Z,3.17
2018-07-16T20:55:58.573Z,3.02
2018-07-16T20:58:28.551Z,3.17
2018-07-16T21:00:58.485Z,4.08
2018-07-16T21:03:28.030Z,3.10
2018-07-16T21:05:57.944Z,3.77
2018-07-16T21:08:27.941Z,3.10
2018-07-16T21:10:57.882Z,3.67
2018-07-16T21:13:27.864Z,3.05
2018-07-16T21:15:57.784Z,3.27
2018-07-16T21:18:27.748Z,3.45
2018-07-16T21:20:57.652Z,3.27
2018-07-16T21:23:27.707Z,3.47
2018-07-16T21:25:57.650Z,3.55
2018-07-16T21:28:27.652Z,4.08
2018-07-16T21:30:57.570Z,4.40
2018-07-16T21:33:27.569Z,4.03
2018-07-16T21:35:57.547Z,3.87
2018-07-16T21:38:27.114Z,3.50
2018-07-16T21:40:57.041Z,3.50
2018-07-16T21:43:27.030Z,3.50
2018-07-16T21:45:56.947Z,3.37
2018-07-16T21:48:26.901Z,3.70
2018-07-16T21:50:56.816Z,3.50
2018-07-16T21:53:26.816Z,3.60
2018-07-16T21:55:57.144Z,3.35
2018-07-16T21:58:27.100Z,3.12
2018-07-16T22:00:57.068Z,3.55
2018-07-16T22:03:27.052Z,3.20
2018-07-16T22:05:57.023Z,4.53
2018-07-16T22:08:27.843Z,3.47
2018-07-16T22:10:57.771Z,3.87
2018-07-16T22:13:27.720Z,3.67
2018-07-16T22:15:57.672Z,3.75
2018-07-16T22:18:27.267Z,3.52
2018-07-16T22:20:58.068Z,3.87
2018-07-16T22:23:28.073Z,3.60
2018-07-16T22:25:58.014Z,3.50
2018-07-16T22:28:27.968Z,3.30
2018-07-16T22:30:57.895Z,4.20
2018-07-16T22:33:27.861Z,3.62
2018-07-16T22:35:57.880Z,3.22
2018-07-16T22:38:27.800Z,3.90
2018-07-16T22:40:57.763Z,3.57
2018-07-16T22:43:27.740Z,3.33
2018-07-16T22:45:57.660Z,3.60
2018-07-16T22:48:27.600Z,3.65
2018-07-16T22:50:57.556Z,3.72
2018-07-16T22:53:27.492Z,3.67
2018-07-16T22:55:57.439Z,3.60
2018-07-16T22:58:27.437Z,3.40
2018-07-16T23:00:57.437Z,3.57
2018-07-16T23:03:27.344Z,3.77
2018-07-16T23:05:57.342Z,4.00
2018-07-16T23:08:27.284Z,3.52
2018-07-16T23:10:56.856Z,3.72
2018-07-16T23:13:26.837Z,3.58
2018-07-16T23:15:56.801Z,3.25
2018-07-16T23:18:26.706Z,3.33
2018-07-16T23:20:56.661Z,3.55
2018-07-16T23:23:26.620Z,3.60
2018-07-16T23:25:56.620Z,3.70
2018-07-16T23:28:26.540Z,3.17
2018-07-16T23:30:56.483Z,3.33
2018-07-16T23:33:26.401Z,3.55
2018-07-16T23:35:56.389Z,3.80
2018-07-16T23:38:26.297Z,3.52
2018-07-16T23:40:56.300Z,3.05
2018-07-16T23:43:26.232Z,3.42
2018-07-16T23:45:56.206Z,3.57
2018-07-16T23:48:26.163Z,3.60
2018-07-16T23:50:56.139Z,3.72
2018-07-16T23:53:26.074Z,3.52
2018-07-16T23:55:56.093Z,3.50
2018-07-16T23:58:26.056Z,3.50
